Grand Junction, Iowa
Current Conditions -  °F | °C
As of 7:15 PM on Saturday 20 Dec 2014 (Local Time) from KPRO Reporting Station
Haze Haze  
Wind Chill: 28°   Ceiling: 1100
Heat Index: 34°   Visibility: 5mi
Dew Point: 34°   Wind: 7mph
Humidity: 100%   Direction: 160°SSE
Pressure: 30.11"   Gusts: NA
Location:  42.03°N, 94.24°W
Report Text: KPRO 210115Z AUTO 16006KT 5SM BR OVC011 01/01 A3011 RMK AO2 T00100010
Loading
Personal Weather Stations






























Interactive Weather Map New forecast layout! Learn more

10-Day Weather Forecast

Advertisements
Track Severe Weather on mobile